sensor_id;sensor_type;location;lat;lon;timestamp;temperature;humidity
4175;DHT22;2101;48.290;14.382;2024-02-21T00:01:01;5.60;99.90
4175;DHT22;2101;48.290;14.382;2024-02-21T00:03:27;5.60;99.90
4175;DHT22;2101;48.290;14.382;2024-02-21T00:05:53;5.60;99.90
4175;DHT22;2101;48.290;14.382;2024-02-21T00:08:19;5.50;99.90
4175;DHT22;2101;48.290;14.382;2024-02-21T00:10:45;5.60;99.90
4175;DHT22;2101;48.290;14.382;2024-02-21T00:13:10;5.60;99.90
4175;DHT22;2101;48.290;14.382;2024-02-21T00:15:37;5.60;99.90
4175;DHT22;2101;48.290;14.382;2024-02-21T00:18:03;5.60;99.90
4175;DHT22;2101;48.290;14.382;2024-02-21T00:20:31;5.60;99.90
4175;DHT22;2101;48.290;14.382;2024-02-21T00:22:57;5.70;99.90
4175;DHT22;2101;48.290;14.382;2024-02-21T00:25:23;5.60;99.90
4175;DHT22;2101;48.290;14.382;2024-02-21T00:27:48;5.60;99.90
4175;DHT22;2101;48.290;14.382;2024-02-21T00:30:14;5.70;99.90
4175;DHT22;2101;48.290;14.382;2024-02-21T00:32:40;5.70;99.90
4175;DHT22;2101;48.290;14.382;2024-02-21T00:35:06;5.70;99.90
4175;DHT22;2101;48.290;14.382;2024-02-21T00:37:32;5.70;99.90
4175;DHT22;2101;48.290;14.382;2024-02-21T00:39:58;5.70;99.90
4175;DHT22;2101;48.290;14.382;2024-02-21T00:42:24;5.60;99.90
4175;DHT22;2101;48.290;14.382;2024-02-21T00:44:50;5.70;99.90
4175;DHT22;2101;48.290;14.382;2024-02-21T00:47:16;5.70;99.90
4175;DHT22;2101;48.290;14.382;2024-02-21T00:49:41;5.70;99.90
4175;DHT22;2101;48.290;14.382;2024-02-21T00:52:07;5.60;99.90
4175;DHT22;2101;48.290;14.382;2024-02-21T00:54:33;5.60;99.90
4175;DHT22;2101;48.290;14.382;2024-02-21T00:56:59;5.60;99.90
4175;DHT22;2101;48.290;14.382;2024-02-21T00:59:25;5.60;99.90
4175;DHT22;2101;48.290;14.382;2024-02-21T01:01:51;5.60;99.90
4175;DHT22;2101;48.290;14.382;2024-02-21T01:04:16;5.60;99.90
4175;DHT22;2101;48.290;14.382;2024-02-21T01:06:42;5.70;99.90
4175;DHT22;2101;48.290;14.382;2024-02-21T01:09:10;5.60;99.90
4175;DHT22;2101;48.290;14.382;2024-02-21T01:11:36;5.60;99.90
4175;DHT22;2101;48.290;14.382;2024-02-21T01:14:02;5.60;99.90
4175;DHT22;2101;48.290;14.382;2024-02-21T01:16:28;5.60;99.90
4175;DHT22;2101;48.290;14.382;2024-02-21T01:18:54;5.60;99.90
4175;DHT22;2101;48.290;14.382;2024-02-21T01:21:20;5.60;99.90
4175;DHT22;2101;48.290;14.382;2024-02-21T01:23:46;5.60;99.90
4175;DHT22;2101;48.290;14.382;2024-02-21T01:26:12;5.60;99.90
4175;DHT22;2101;48.290;14.382;2024-02-21T01:28:40;5.70;99.90
4175;DHT22;2101;48.290;14.382;2024-02-21T01:31:06;5.70;99.90
4175;DHT22;2101;48.290;14.382;2024-02-21T01:33:32;5.60;99.90
4175;DHT22;2101;48.290;14.382;2024-02-21T01:36:04;5.70;99.90
4175;DHT22;2101;48.290;14.382;2024-02-21T01:38:32;5.60;99.90
4175;DHT22;2101;48.290;14.382;2024-02-21T01:40:58;5.60;99.90
4175;DHT22;2101;48.290;14.382;2024-02-21T01:43:24;5.60;99.90
4175;DHT22;2101;48.290;14.382;2024-02-21T01:45:54;5.60;99.90
4175;DHT22;2101;48.290;14.382;2024-02-21T01:48:22;5.60;99.90
4175;DHT22;2101;48.290;14.382;2024-02-21T01:50:49;5.60;99.90
4175;DHT22;2101;48.290;14.382;2024-02-21T01:53:29;5.50;99.90
4175;DHT22;2101;48.290;14.382;2024-02-21T01:55:55;5.50;99.90
4175;DHT22;2101;48.290;14.382;2024-02-21T01:58:22;5.40;99.90
4175;DHT22;2101;48.290;14.382;2024-02-21T02:00:50;5.40;99.90
4175;DHT22;2101;48.290;14.382;2024-02-21T02:03:16;5.40;99.90
4175;DHT22;2101;48.290;14.382;2024-02-21T02:05:46;5.40;99.90
4175;DHT22;2101;48.290;14.382;2024-02-21T02:08:17;5.40;99.90
4175;DHT22;2101;48.290;14.382;2024-02-21T02:10:43;5.40;99.90
4175;DHT22;2101;48.290;14.382;2024-02-21T02:13:10;5.40;99.90
4175;DHT22;2101;48.290;14.382;2024-02-21T02:18:05;5.40;99.90
4175;DHT22;2101;48.290;14.382;2024-02-21T02:20:31;5.40;99.90
4175;DHT22;2101;48.290;14.382;2024-02-21T02:22:59;5.30;99.90
4175;DHT22;2101;48.290;14.382;2024-02-21T02:25:26;5.30;99.90
4175;DHT22;2101;48.290;14.382;2024-02-21T02:27:53;5.30;99.90
4175;DHT22;2101;48.290;14.382;2024-02-21T02:30:19;5.40;99.90
4175;DHT22;2101;48.290;14.382;2024-02-21T02:32:47;5.30;99.90
4175;DHT22;2101;48.290;14.382;2024-02-21T02:35:14;5.40;99.90
4175;DHT22;2101;48.290;14.382;2024-02-21T02:37:39;5.30;99.90
4175;DHT22;2101;48.290;14.382;2024-02-21T02:40:08;5.30;99.90
4175;DHT22;2101;48.290;14.382;2024-02-21T02:42:34;5.30;99.90
4175;DHT22;2101;48.290;14.382;2024-02-21T02:45:00;5.30;99.90
4175;DHT22;2101;48.290;14.382;2024-02-21T02:47:26;5.30;99.90
4175;DHT22;2101;48.290;14.382;2024-02-21T02:49:51;5.30;99.90
4175;DHT22;2101;48.290;14.382;2024-02-21T02:52:17;5.30;99.90
4175;DHT22;2101;48.290;14.382;2024-02-21T02:54:44;5.30;99.90
4175;DHT22;2101;48.290;14.382;2024-02-21T02:57:10;5.30;99.90
4175;DHT22;2101;48.290;14.382;2024-02-21T02:59:37;5.40;99.90
4175;DHT22;2101;48.290;14.382;2024-02-21T03:02:03;5.40;99.90
4175;DHT22;2101;48.290;14.382;2024-02-21T03:04:29;5.40;99.90
4175;DHT22;2101;48.290;14.382;2024-02-21T03:06:54;5.40;99.90
4175;DHT22;2101;48.290;14.382;2024-02-21T03:09:20;5.40;99.90
4175;DHT22;2101;48.290;14.382;2024-02-21T03:11:46;5.50;99.90
4175;DHT22;2101;48.290;14.382;2024-02-21T03:14:12;5.50;99.90
4175;DHT22;2101;48.290;14.382;2024-02-21T03:16:38;5.50;99.90
4175;DHT22;2101;48.290;14.382;2024-02-21T03:19:04;5.50;99.90
4175;DHT22;2101;48.290;14.382;2024-02-21T03:21:30;5.50;99.90
4175;DHT22;2101;48.290;14.382;2024-02-21T03:23:56;5.50;99.90
4175;DHT22;2101;48.290;14.382;2024-02-21T03:26:21;5.50;99.90
4175;DHT22;2101;48.290;14.382;2024-02-21T03:28:48;5.50;99.90
4175;DHT22;2101;48.290;14.382;2024-02-21T03:31:14;5.50;99.90
4175;DHT22;2101;48.290;14.382;2024-02-21T03:33:41;5.60;99.90
4175;DHT22;2101;48.290;14.382;2024-02-21T03:36:13;5.60;99.90
4175;DHT22;2101;48.290;14.382;2024-02-21T03:38:39;5.50;99.90
4175;DHT22;2101;48.290;14.382;2024-02-21T03:41:05;5.50;99.90
4175;DHT22;2101;48.290;14.382;2024-02-21T03:43:31;5.50;99.90
4175;DHT22;2101;48.290;14.382;2024-02-21T03:45:57;5.50;99.90
4175;DHT22;2101;48.290;14.382;2024-02-21T03:48:23;5.60;99.90
4175;DHT22;2101;48.290;14.382;2024-02-21T03:50:49;5.60;99.90
4175;DHT22;2101;48.290;14.382;2024-02-21T03:53:14;5.60;99.90
4175;DHT22;2101;48.290;14.382;2024-02-21T03:55:40;5.60;99.90
4175;DHT22;2101;48.290;14.382;2024-02-21T03:58:06;5.60;99.90
4175;DHT22;2101;48.290;14.382;2024-02-21T04:00:32;5.60;99.90
4175;DHT22;2101;48.290;14.382;2024-02-21T04:02:58;5.60;99.90
4175;DHT22;2101;48.290;14.382;2024-02-21T04:05:23;5.60;99.90
4175;DHT22;2101;48.290;14.382;2024-02-21T04:07:49;5.60;99.90
4175;DHT22;2101;48.290;14.382;2024-02-21T04:10:16;5.60;99.90
4175;DHT22;2101;48.290;14.382;2024-02-21T04:12:42;5.60;99.90
4175;DHT22;2101;48.290;14.382;2024-02-21T04:15:08;5.60;99.90
4175;DHT22;2101;48.290;14.382;2024-02-21T04:17:35;5.60;99.90
4175;DHT22;2101;48.290;14.382;2024-02-21T04:20:05;5.60;99.90
4175;DHT22;2101;48.290;14.382;2024-02-21T04:22:34;5.60;99.90
4175;DHT22;2101;48.290;14.382;2024-02-21T04:25:00;5.60;99.90
4175;DHT22;2101;48.290;14.382;2024-02-21T04:27:26;5.60;99.90
4175;DHT22;2101;48.290;14.382;2024-02-21T04:29:53;5.60;99.90
4175;DHT22;2101;48.290;14.382;2024-02-21T04:32:18;5.50;99.90
4175;DHT22;2101;48.290;14.382;2024-02-21T04:34:44;5.50;99.90
4175;DHT22;2101;48.290;14.382;2024-02-21T04:37:10;5.60;99.90
4175;DHT22;2101;48.290;14.382;2024-02-21T04:39:36;5.50;99.90
4175;DHT22;2101;48.290;14.382;2024-02-21T04:42:02;5.60;99.90
4175;DHT22;2101;48.290;14.382;2024-02-21T04:44:28;5.50;99.90
4175;DHT22;2101;48.290;14.382;2024-02-21T04:46:54;5.50;99.90
4175;DHT22;2101;48.290;14.382;2024-02-21T04:49:20;5.60;99.90
4175;DHT22;2101;48.290;14.382;2024-02-21T04:52:20;5.50;99.90
4175;DHT22;2101;48.290;14.382;2024-02-21T04:54:45;5.50;99.90
4175;DHT22;2101;48.290;14.382;2024-02-21T04:57:11;5.50;99.90
4175;DHT22;2101;48.290;14.382;2024-02-21T04:59:44;5.50;99.90
4175;DHT22;2101;48.290;14.382;2024-02-21T05:02:11;5.50;99.90
4175;DHT22;2101;48.290;14.382;2024-02-21T05:04:37;5.40;99.90
4175;DHT22;2101;48.290;14.382;2024-02-21T05:07:04;5.40;99.90
4175;DHT22;2101;48.290;14.382;2024-02-21T05:09:33;5.40;99.90
4175;DHT22;2101;48.290;14.382;2024-02-21T05:11:59;5.50;99.90
4175;DHT22;2101;48.290;14.382;2024-02-21T05:14:26;5.50;99.90
4175;DHT22;2101;48.290;14.382;2024-02-21T05:16:54;5.50;99.90
4175;DHT22;2101;48.290;14.382;2024-02-21T05:19:20;5.50;99.90
4175;DHT22;2101;48.290;14.382;2024-02-21T05:21:46;5.50;99.90
4175;DHT22;2101;48.290;14.382;2024-02-21T05:24:12;5.50;99.90
4175;DHT22;2101;48.290;14.382;2024-02-21T05:26:38;5.50;99.90
4175;DHT22;2101;48.290;14.382;2024-02-21T05:29:04;5.60;99.90
4175;DHT22;2101;48.290;14.382;2024-02-21T05:34:18;5.50;99.90
4175;DHT22;2101;48.290;14.382;2024-02-21T05:36:44;5.50;99.90
4175;DHT22;2101;48.290;14.382;2024-02-21T05:39:12;5.60;99.90
4175;DHT22;2101;48.290;14.382;2024-02-21T05:41:38;5.60;99.90
4175;DHT22;2101;48.290;14.382;2024-02-21T05:44:04;5.50;99.90
4175;DHT22;2101;48.290;14.382;2024-02-21T05:46:29;5.50;99.90
4175;DHT22;2101;48.290;14.382;2024-02-21T05:48:55;5.50;99.90
4175;DHT22;2101;48.290;14.382;2024-02-21T05:51:21;5.50;99.90
4175;DHT22;2101;48.290;14.382;2024-02-21T05:53:47;5.50;99.90
4175;DHT22;2101;48.290;14.382;2024-02-21T05:56:14;5.50;99.90
4175;DHT22;2101;48.290;14.382;2024-02-21T05:58:40;5.50;99.90
4175;DHT22;2101;48.290;14.382;2024-02-21T06:01:06;5.60;99.90
4175;DHT22;2101;48.290;14.382;2024-02-21T06:03:35;5.60;99.90
4175;DHT22;2101;48.290;14.382;2024-02-21T06:06:02;5.60;99.90
4175;DHT22;2101;48.290;14.382;2024-02-21T06:08:28;5.60;99.90
4175;DHT22;2101;48.290;14.382;2024-02-21T06:10:54;5.50;99.90
4175;DHT22;2101;48.290;14.382;2024-02-21T06:13:23;5.50;99.90
4175;DHT22;2101;48.290;14.382;2024-02-21T06:15:50;5.50;99.90
4175;DHT22;2101;48.290;14.382;2024-02-21T06:18:17;5.50;99.90
4175;DHT22;2101;48.290;14.382;2024-02-21T06:20:43;5.50;99.90
4175;DHT22;2101;48.290;14.382;2024-02-21T06:23:09;5.50;99.90
4175;DHT22;2101;48.290;14.382;2024-02-21T06:25:35;5.50;99.90
4175;DHT22;2101;48.290;14.382;2024-02-21T06:28:01;5.50;99.90
4175;DHT22;2101;48.290;14.382;2024-02-21T06:30:27;5.50;99.90
4175;DHT22;2101;48.290;14.382;2024-02-21T06:32:53;5.50;99.90
4175;DHT22;2101;48.290;14.382;2024-02-21T06:35:21;5.50;99.90
4175;DHT22;2101;48.290;14.382;2024-02-21T06:37:50;5.60;99.90
4175;DHT22;2101;48.290;14.382;2024-02-21T06:40:23;5.60;99.90
4175;DHT22;2101;48.290;14.382;2024-02-21T06:42:50;5.70;99.90
4175;DHT22;2101;48.290;14.382;2024-02-21T06:45:22;5.70;99.90
4175;DHT22;2101;48.290;14.382;2024-02-21T06:47:51;5.80;99.90
4175;DHT22;2101;48.290;14.382;2024-02-21T06:50:16;5.90;99.90
4175;DHT22;2101;48.290;14.382;2024-02-21T06:52:42;6.00;99.90
4175;DHT22;2101;48.290;14.382;2024-02-21T06:55:08;6.10;99.90
4175;DHT22;2101;48.290;14.382;2024-02-21T06:57:34;6.10;99.90
4175;DHT22;2101;48.290;14.382;2024-02-21T07:00:03;6.40;99.90
4175;DHT22;2101;48.290;14.382;2024-02-21T07:02:34;6.40;99.90
4175;DHT22;2101;48.290;14.382;2024-02-21T07:04:59;6.30;99.90
4175;DHT22;2101;48.290;14.382;2024-02-21T07:07:25;6.40;99.90
4175;DHT22;2101;48.290;14.382;2024-02-21T07:09:51;6.40;99.90
4175;DHT22;2101;48.290;14.382;2024-02-21T07:12:19;6.60;99.90
4175;DHT22;2101;48.290;14.382;2024-02-21T07:14:45;6.60;99.90
4175;DHT22;2101;48.290;14.382;2024-02-21T07:17:11;6.50;99.90
4175;DHT22;2101;48.290;14.382;2024-02-21T07:19:37;6.50;99.90
4175;DHT22;2101;48.290;14.382;2024-02-21T07:22:03;6.60;99.90
4175;DHT22;2101;48.290;14.382;2024-02-21T07:24:29;6.60;99.90
4175;DHT22;2101;48.290;14.382;2024-02-21T07:26:54;6.40;99.90
4175;DHT22;2101;48.290;14.382;2024-02-21T07:29:21;6.50;99.90
4175;DHT22;2101;48.290;14.382;2024-02-21T07:31:48;6.60;99.90
4175;DHT22;2101;48.290;14.382;2024-02-21T07:34:14;6.60;99.90
4175;DHT22;2101;48.290;14.382;2024-02-21T07:36:40;6.50;99.90
4175;DHT22;2101;48.290;14.382;2024-02-21T07:39:08;6.60;99.90
4175;DHT22;2101;48.290;14.382;2024-02-21T07:41:34;6.50;99.90
4175;DHT22;2101;48.290;14.382;2024-02-21T07:44:00;6.60;99.90
4175;DHT22;2101;48.290;14.382;2024-02-21T07:46:26;6.80;99.90
4175;DHT22;2101;48.290;14.382;2024-02-21T08:21:41;8.10;99.90
4175;DHT22;2101;48.290;14.382;2024-02-21T08:24:07;8.20;99.90
4175;DHT22;2101;48.290;14.382;2024-02-21T08:26:33;8.40;99.90
4175;DHT22;2101;48.290;14.382;2024-02-21T08:28:59;8.50;99.90
4175;DHT22;2101;48.290;14.382;2024-02-21T08:31:26;8.10;99.90
4175;DHT22;2101;48.290;14.382;2024-02-21T08:34:00;8.30;99.90
4175;DHT22;2101;48.290;14.382;2024-02-21T08:36:31;8.20;99.90
4175;DHT22;2101;48.290;14.382;2024-02-21T08:38:58;8.10;99.90
4175;DHT22;2101;48.290;14.382;2024-02-21T08:41:24;8.30;99.90
4175;DHT22;2101;48.290;14.382;2024-02-21T08:43:51;8.40;99.90
4175;DHT22;2101;48.290;14.382;2024-02-21T08:46:18;8.50;99.90
4175;DHT22;2101;48.290;14.382;2024-02-21T08:48:44;8.40;99.90
4175;DHT22;2101;48.290;14.382;2024-02-21T08:51:13;8.40;99.90
4175;DHT22;2101;48.290;14.382;2024-02-21T08:53:39;8.40;99.90
4175;DHT22;2101;48.290;14.382;2024-02-21T08:56:06;8.50;99.90
4175;DHT22;2101;48.290;14.382;2024-02-21T08:58:33;8.30;99.90
4175;DHT22;2101;48.290;14.382;2024-02-21T09:00:59;8.20;99.90
4175;DHT22;2101;48.290;14.382;2024-02-21T09:03:25;8.20;99.90
4175;DHT22;2101;48.290;14.382;2024-02-21T09:05:51;8.30;99.90
4175;DHT22;2101;48.290;14.382;2024-02-21T09:08:16;8.40;99.90
4175;DHT22;2101;48.290;14.382;2024-02-21T09:10:44;8.40;99.90
4175;DHT22;2101;48.290;14.382;2024-02-21T09:13:10;8.40;99.90
4175;DHT22;2101;48.290;14.382;2024-02-21T09:15:36;8.50;99.90
4175;DHT22;2101;48.290;14.382;2024-02-21T09:18:02;8.70;99.90
4175;DHT22;2101;48.290;14.382;2024-02-21T09:20:28;8.80;99.90
4175;DHT22;2101;48.290;14.382;2024-02-21T09:22:54;8.80;99.90
4175;DHT22;2101;48.290;14.382;2024-02-21T09:25:20;9.10;99.90
4175;DHT22;2101;48.290;14.382;2024-02-21T09:27:46;8.90;99.90
4175;DHT22;2101;48.290;14.382;2024-02-21T09:30:12;8.90;99.90
4175;DHT22;2101;48.290;14.382;2024-02-21T09:32:38;8.90;99.90
4175;DHT22;2101;48.290;14.382;2024-02-21T09:35:04;8.70;99.90
4175;DHT22;2101;48.290;14.382;2024-02-21T09:37:33;8.70;99.90
4175;DHT22;2101;48.290;14.382;2024-02-21T09:39:59;8.60;99.90
4175;DHT22;2101;48.290;14.382;2024-02-21T09:42:37;8.60;99.90
4175;DHT22;2101;48.290;14.382;2024-02-21T09:45:08;8.60;99.90
4175;DHT22;2101;48.290;14.382;2024-02-21T09:47:56;8.50;99.90
4175;DHT22;2101;48.290;14.382;2024-02-21T09:50:24;8.50;99.90
4175;DHT22;2101;48.290;14.382;2024-02-21T09:52:53;8.50;99.90
4175;DHT22;2101;48.290;14.382;2024-02-21T09:55:21;8.50;99.90
4175;DHT22;2101;48.290;14.382;2024-02-21T09:57:53;8.40;99.90
4175;DHT22;2101;48.290;14.382;2024-02-21T10:00:19;8.50;99.90
4175;DHT22;2101;48.290;14.382;2024-02-21T10:02:50;8.40;99.90
4175;DHT22;2101;48.290;14.382;2024-02-21T10:05:16;8.40;99.90
4175;DHT22;2101;48.290;14.382;2024-02-21T10:07:43;8.40;99.90
4175;DHT22;2101;48.290;14.382;2024-02-21T10:10:10;8.40;99.90
4175;DHT22;2101;48.290;14.382;2024-02-21T10:12:36;8.60;99.90
4175;DHT22;2101;48.290;14.382;2024-02-21T10:15:06;8.70;99.90
4175;DHT22;2101;48.290;14.382;2024-02-21T10:17:35;8.70;99.90
4175;DHT22;2101;48.290;14.382;2024-02-21T10:20:11;8.70;99.90
4175;DHT22;2101;48.290;14.382;2024-02-21T10:22:38;8.70;99.90
4175;DHT22;2101;48.290;14.382;2024-02-21T10:25:09;8.90;99.90
4175;DHT22;2101;48.290;14.382;2024-02-21T10:27:36;8.80;99.90
4175;DHT22;2101;48.290;14.382;2024-02-21T10:30:02;8.90;99.90
4175;DHT22;2101;48.290;14.382;2024-02-21T10:32:28;8.90;99.90
4175;DHT22;2101;48.290;14.382;2024-02-21T10:35:04;8.90;99.90
4175;DHT22;2101;48.290;14.382;2024-02-21T10:37:31;8.70;99.90
4175;DHT22;2101;48.290;14.382;2024-02-21T10:39:57;8.70;99.90
4175;DHT22;2101;48.290;14.382;2024-02-21T10:42:29;8.70;99.90
4175;DHT22;2101;48.290;14.382;2024-02-21T10:45:01;8.80;99.90
4175;DHT22;2101;48.290;14.382;2024-02-21T10:47:31;8.90;99.90
4175;DHT22;2101;48.290;14.382;2024-02-21T10:50:02;8.80;99.90
4175;DHT22;2101;48.290;14.382;2024-02-21T10:55:31;9.00;99.90
4175;DHT22;2101;48.290;14.382;2024-02-21T10:58:02;9.10;99.90
4175;DHT22;2101;48.290;14.382;2024-02-21T11:00:29;9.20;99.90
4175;DHT22;2101;48.290;14.382;2024-02-21T11:02:57;9.30;99.90
4175;DHT22;2101;48.290;14.382;2024-02-21T11:05:24;9.30;99.90
4175;DHT22;2101;48.290;14.382;2024-02-21T11:07:51;9.40;99.90
4175;DHT22;2101;48.290;14.382;2024-02-21T11:10:23;9.40;99.90
4175;DHT22;2101;48.290;14.382;2024-02-21T11:12:52;9.50;99.90
4175;DHT22;2101;48.290;14.382;2024-02-21T11:15:18;9.50;99.90
4175;DHT22;2101;48.290;14.382;2024-02-21T11:17:58;9.40;99.90
4175;DHT22;2101;48.290;14.382;2024-02-21T11:20:35;9.40;99.90
4175;DHT22;2101;48.290;14.382;2024-02-21T11:23:01;9.50;99.90
4175;DHT22;2101;48.290;14.382;2024-02-21T11:25:27;9.50;99.90
4175;DHT22;2101;48.290;14.382;2024-02-21T11:28:04;9.40;99.90
4175;DHT22;2101;48.290;14.382;2024-02-21T11:30:32;9.50;99.90
4175;DHT22;2101;48.290;14.382;2024-02-21T11:33:06;9.60;99.90
4175;DHT22;2101;48.290;14.382;2024-02-21T11:35:34;9.60;99.90
4175;DHT22;2101;48.290;14.382;2024-02-21T11:38:10;9.80;99.90
4175;DHT22;2101;48.290;14.382;2024-02-21T11:40:40;9.90;99.90
4175;DHT22;2101;48.290;14.382;2024-02-21T11:43:07;10.00;99.90
4175;DHT22;2101;48.290;14.382;2024-02-21T11:45:33;10.30;99.90
4175;DHT22;2101;48.290;14.382;2024-02-21T11:47:59;10.40;99.90
4175;DHT22;2101;48.290;14.382;2024-02-21T11:50:29;10.60;99.90
4175;DHT22;2101;48.290;14.382;2024-02-21T11:52:56;10.80;99.90
4175;DHT22;2101;48.290;14.382;2024-02-21T11:55:25;10.60;99.90
4175;DHT22;2101;48.290;14.382;2024-02-21T11:57:51;10.70;99.90
4175;DHT22;2101;48.290;14.382;2024-02-21T12:00:18;10.80;99.90
4175;DHT22;2101;48.290;14.382;2024-02-21T12:02:47;11.00;99.90
4175;DHT22;2101;48.290;14.382;2024-02-21T12:05:14;11.10;99.90
4175;DHT22;2101;48.290;14.382;2024-02-21T12:07:40;10.90;99.90
4175;DHT22;2101;48.290;14.382;2024-02-21T12:10:10;10.90;99.90
4175;DHT22;2101;48.290;14.382;2024-02-21T12:12:37;10.80;99.90
4175;DHT22;2101;48.290;14.382;2024-02-21T12:15:07;10.70;99.90
4175;DHT22;2101;48.290;14.382;2024-02-21T12:17:37;10.70;99.90
4175;DHT22;2101;48.290;14.382;2024-02-21T12:20:03;10.80;99.90
4175;DHT22;2101;48.290;14.382;2024-02-21T12:22:31;10.90;99.90
4175;DHT22;2101;48.290;14.382;2024-02-21T12:25:00;10.80;99.90
4175;DHT22;2101;48.290;14.382;2024-02-21T12:27:28;10.80;99.90
4175;DHT22;2101;48.290;14.382;2024-02-21T12:29:54;10.80;99.90
4175;DHT22;2101;48.290;14.382;2024-02-21T12:32:20;10.90;99.90
4175;DHT22;2101;48.290;14.382;2024-02-21T12:34:46;10.60;99.90
4175;DHT22;2101;48.290;14.382;2024-02-21T12:37:12;10.70;99.90
4175;DHT22;2101;48.290;14.382;2024-02-21T12:39:38;10.90;99.90
4175;DHT22;2101;48.290;14.382;2024-02-21T12:42:04;10.90;99.90
4175;DHT22;2101;48.290;14.382;2024-02-21T12:44:30;10.90;99.90
4175;DHT22;2101;48.290;14.382;2024-02-21T12:46:57;10.90;99.90
4175;DHT22;2101;48.290;14.382;2024-02-21T12:49:23;11.00;99.90
4175;DHT22;2101;48.290;14.382;2024-02-21T12:51:50;11.00;99.90
4175;DHT22;2101;48.290;14.382;2024-02-21T12:54:15;10.90;99.90
4175;DHT22;2101;48.290;14.382;2024-02-21T12:56:41;11.00;99.90
4175;DHT22;2101;48.290;14.382;2024-02-21T12:59:07;11.00;99.90
4175;DHT22;2101;48.290;14.382;2024-02-21T13:01:37;10.90;99.90
4175;DHT22;2101;48.290;14.382;2024-02-21T13:04:03;11.00;99.90
4175;DHT22;2101;48.290;14.382;2024-02-21T13:06:29;10.90;99.90
4175;DHT22;2101;48.290;14.382;2024-02-21T13:08:55;10.70;99.90
4175;DHT22;2101;48.290;14.382;2024-02-21T13:11:20;10.90;99.90
4175;DHT22;2101;48.290;14.382;2024-02-21T13:13:46;11.00;99.90
4175;DHT22;2101;48.290;14.382;2024-02-21T13:16:12;11.00;99.90
4175;DHT22;2101;48.290;14.382;2024-02-21T13:18:38;11.10;99.90
4175;DHT22;2101;48.290;14.382;2024-02-21T13:21:05;11.20;99.90
4175;DHT22;2101;48.290;14.382;2024-02-21T13:23:31;11.10;99.90
4175;DHT22;2101;48.290;14.382;2024-02-21T13:25:57;11.20;99.90
4175;DHT22;2101;48.290;14.382;2024-02-21T13:28:23;11.30;99.70
4175;DHT22;2101;48.290;14.382;2024-02-21T13:30:49;11.20;97.60
4175;DHT22;2101;48.290;14.382;2024-02-21T13:33:15;11.20;97.10
4175;DHT22;2101;48.290;14.382;2024-02-21T13:35:41;11.20;97.90
4175;DHT22;2101;48.290;14.382;2024-02-21T13:38:07;11.20;97.20
4175;DHT22;2101;48.290;14.382;2024-02-21T13:40:35;11.30;98.80
4175;DHT22;2101;48.290;14.382;2024-02-21T13:43:01;11.40;97.60
4175;DHT22;2101;48.290;14.382;2024-02-21T13:45:27;11.60;98.30
4175;DHT22;2101;48.290;14.382;2024-02-21T13:47:53;11.60;98.10
4175;DHT22;2101;48.290;14.382;2024-02-21T13:50:21;11.60;98.20
4175;DHT22;2101;48.290;14.382;2024-02-21T13:52:47;11.50;98.10
4175;DHT22;2101;48.290;14.382;2024-02-21T13:55:13;11.50;97.90
4175;DHT22;2101;48.290;14.382;2024-02-21T13:57:39;11.40;96.90
4175;DHT22;2101;48.290;14.382;2024-02-21T14:00:05;11.50;97.40
4175;DHT22;2101;48.290;14.382;2024-02-21T14:02:35;11.40;96.90
4175;DHT22;2101;48.290;14.382;2024-02-21T14:05:01;11.40;97.10
4175;DHT22;2101;48.290;14.382;2024-02-21T14:07:30;11.30;97.40
4175;DHT22;2101;48.290;14.382;2024-02-21T14:09:56;11.50;98.20
4175;DHT22;2101;48.290;14.382;2024-02-21T14:12:22;11.50;97.40
4175;DHT22;2101;48.290;14.382;2024-02-21T14:14:49;11.50;97.50
4175;DHT22;2101;48.290;14.382;2024-02-21T14:17:15;11.50;97.40
4175;DHT22;2101;48.290;14.382;2024-02-21T14:19:41;11.70;97.80
4175;DHT22;2101;48.290;14.382;2024-02-21T14:22:10;11.60;98.30
4175;DHT22;2101;48.290;14.382;2024-02-21T14:24:37;11.50;98.00
4175;DHT22;2101;48.290;14.382;2024-02-21T14:27:03;11.60;97.50
4175;DHT22;2101;48.290;14.382;2024-02-21T14:29:29;11.60;98.40
4175;DHT22;2101;48.290;14.382;2024-02-21T14:31:55;11.60;98.30
4175;DHT22;2101;48.290;14.382;2024-02-21T14:34:21;11.60;97.70
4175;DHT22;2101;48.290;14.382;2024-02-21T14:36:47;11.70;97.30
4175;DHT22;2101;48.290;14.382;2024-02-21T14:39:13;11.70;98.70
4175;DHT22;2101;48.290;14.382;2024-02-21T14:41:39;11.70;98.40
4175;DHT22;2101;48.290;14.382;2024-02-21T14:44:05;11.70;98.50
4175;DHT22;2101;48.290;14.382;2024-02-21T14:46:31;11.70;99.40
4175;DHT22;2101;48.290;14.382;2024-02-21T14:48:57;11.60;99.90
4175;DHT22;2101;48.290;14.382;2024-02-21T14:51:23;11.70;99.90
4175;DHT22;2101;48.290;14.382;2024-02-21T14:53:49;11.60;98.70
4175;DHT22;2101;48.290;14.382;2024-02-21T14:56:15;11.60;98.60
4175;DHT22;2101;48.290;14.382;2024-02-21T14:58:42;11.60;99.10
4175;DHT22;2101;48.290;14.382;2024-02-21T15:01:08;11.60;97.90
4175;DHT22;2101;48.290;14.382;2024-02-21T15:03:35;11.60;98.40
4175;DHT22;2101;48.290;14.382;2024-02-21T15:06:01;11.60;98.30
4175;DHT22;2101;48.290;14.382;2024-02-21T15:08:27;11.60;98.70
4175;DHT22;2101;48.290;14.382;2024-02-21T15:10:54;11.60;98.40
4175;DHT22;2101;48.290;14.382;2024-02-21T15:13:20;11.60;97.40
4175;DHT22;2101;48.290;14.382;2024-02-21T15:15:48;11.60;98.80
4175;DHT22;2101;48.290;14.382;2024-02-21T15:18:14;11.60;98.70
4175;DHT22;2101;48.290;14.382;2024-02-21T15:20:44;11.50;98.90
4175;DHT22;2101;48.290;14.382;2024-02-21T15:23:10;11.40;98.70
4175;DHT22;2101;48.290;14.382;2024-02-21T15:25:36;11.40;99.20
4175;DHT22;2101;48.290;14.382;2024-02-21T15:28:03;11.20;99.40
4175;DHT22;2101;48.290;14.382;2024-02-21T15:30:30;11.10;99.10
4175;DHT22;2101;48.290;14.382;2024-02-21T15:32:57;10.80;99.90
4175;DHT22;2101;48.290;14.382;2024-02-21T15:35:30;10.70;99.90
4175;DHT22;2101;48.290;14.382;2024-02-21T15:37:57;10.40;99.90
4175;DHT22;2101;48.290;14.382;2024-02-21T15:40:23;10.30;99.90
4175;DHT22;2101;48.290;14.382;2024-02-21T15:42:49;10.20;99.90
4175;DHT22;2101;48.290;14.382;2024-02-21T15:45:16;10.00;99.90
4175;DHT22;2101;48.290;14.382;2024-02-21T15:47:41;9.90;99.90
4175;DHT22;2101;48.290;14.382;2024-02-21T15:50:08;9.80;99.90
4175;DHT22;2101;48.290;14.382;2024-02-21T15:52:36;9.70;99.90
4175;DHT22;2101;48.290;14.382;2024-02-21T15:55:04;9.50;99.90
4175;DHT22;2101;48.290;14.382;2024-02-21T15:57:30;9.40;99.90
4175;DHT22;2101;48.290;14.382;2024-02-21T15:59:57;9.30;99.90
4175;DHT22;2101;48.290;14.382;2024-02-21T16:02:23;9.20;99.90
4175;DHT22;2101;48.290;14.382;2024-02-21T16:04:50;9.10;99.90
4175;DHT22;2101;48.290;14.382;2024-02-21T16:07:16;9.00;99.90
4175;DHT22;2101;48.290;14.382;2024-02-21T16:09:44;8.90;99.90
4175;DHT22;2101;48.290;14.382;2024-02-21T16:12:10;8.80;99.90
4175;DHT22;2101;48.290;14.382;2024-02-21T16:14:36;8.70;99.90
4175;DHT22;2101;48.290;14.382;2024-02-21T16:17:03;8.70;99.90
4175;DHT22;2101;48.290;14.382;2024-02-21T16:19:32;8.60;99.90
4175;DHT22;2101;48.290;14.382;2024-02-21T16:21:59;8.60;99.90
4175;DHT22;2101;48.290;14.382;2024-02-21T16:24:28;8.50;99.90
4175;DHT22;2101;48.290;14.382;2024-02-21T16:26:54;8.60;99.90
4175;DHT22;2101;48.290;14.382;2024-02-21T16:29:20;8.50;99.90
4175;DHT22;2101;48.290;14.382;2024-02-21T16:31:48;8.50;99.90
4175;DHT22;2101;48.290;14.382;2024-02-21T16:34:14;8.50;99.90
4175;DHT22;2101;48.290;14.382;2024-02-21T16:36:41;8.40;99.90